Jackpot

Texas Poker Multi Jackpot System

Kini Telah hadir Jackpot SUPER ROYAL FLUSH

Kini Telah hadir Jackpot 2000 (khusus table VIP keatas).

Ikutilah global jackpot yang tersedia di system kami, dengan system jackpot terbaru dan pertama di indonesia, anda dapat membeli jackpot dengan harga 100 rupiah saja dan menangkan hadiahnya hingga puluhan juta rupiah.

Jackpot bukanlah suatu keharusan untuk dibeli, namun kami memberikan suatu fitur tambahan untuk member tercinta dari www.salampoker.com.

Terdapat tiga pilihan harga jackpot yang bisa anda beli yaitu :100,500,1000 dan 2000(khusus table VIP Keatas) rupiah.

Hadiah dari Multi jackpot system www.salampoker.com

  1. full house x 10 harga jackpot yang anda beli.
      (contoh:anda membeli 1000 maka:1000 X10 = 10.000)
  2. four of kind x 250 harga jackpot yang anda beli
      (contoh:anda membeli 1000 maka:1000 X250 = 250.000)
  3. Straight flush x 1200
      (contoh:anda membeli 1000 maka:1000 X1200 = 1.200.000)
  4. Royal flush x 10000 harga jackpot yang anda beli
      (contoh:anda membeli 1000 maka:1000 X10000 = 10.000.000)
  5. SUPER ROYAL FLUSH x 30000 harga jackpot yang anda beli
      (contoh:anda membeli 1000 maka:1000 X30000 = 30.000.000)

Kondisi kartu

  1. full house adalah kondisi kartu dimana kartu anda dan kartu tengah dengan total 7 kartu bisa mendapatkan nilai 5 kartu dengan kombinasi 1 tris(three of kind) dan 1 pair, contoh 3 kartu 10 dan 2 kartu 5
  2. Four of kind adalah kondisi kartu dimana kartu anda dan kartu tengah dengan total 7 kartu bisa mendapatkan nilai 5 kartu dengan kombinasi 4 kartu yang sama jumlah dan 1 kartu apapun juga contoh anda mendapatkan 4 buah kartu angka 3 dan 1 kartu apapun.
  3. Staright flush adalah kondisi kartu dimana kartu anda dan kartu tengah dengan total 7 kartu bisa mendapatkan nilai 5 kartu dengan kombinasi seri / staright dengan kembang yang sama contoh : urutan kartu dari angka 5, 6, 7, 8 , 9 10 dengan kembang yg sama misalnya as hati
  4. Royal flush adalah kondisi kartu dimana kartu anda dan kartu tengah dengan total 7 kartu bisa mendapatkan nilai 5 kartu dengan kombinasi seri / staright dengan kembang yang sama tetapi kartu tersebut haruslah dimulai dari 10. contoh 10, Queen, Jack, King dan aces dengan kembang yang sama
  5. Super Royal flush adalah kondisi kartu dimana Kedua kartu anda digabung dengan 3 kartu pertama meja haruslah royal flush. contoh kartu anda 10,Queen kembang sama dan 3 kartu pertama meja adalah Jack, King dan aces dengan kembang yang sama

Demikian adalah penjelasan dari Multi Jackpot www.salampoker.com terima kasih dan selamat bermain salam hoki dari kami

Texas Poker Jackpot Winner

TOP SUPER ROYAL FLUSH
No.TanggalNamaPriceWin
118/01 18:17MARURSuper Royal flush6,000,000
218/01 14:31BOZLINDA2Super Royal flush3,000,000
318/01 13:23FEFFSuper Royal flush15,000,000
418/01 12:57EDELSSuper Royal flush15,000,000
518/01 12:14DEWIRAJA88Super Royal flush30,000,000
TOP ROYAL FLUSH
No.TanggalNamaPriceWin
118/01 20:31EX087Royal flush20,000,000
218/01 20:20DEWAHBRoyal flush2,000,000
318/01 20:14RSFDTGRFDTRoyal flush5,000,000
418/01 20:12SRTLBANDA11Royal flush2,000,000
518/01 20:05MAJU1331Royal flush10,000,000
TOP STRAIGHT FLUSH
No.TanggalNamaPriceWin
118/01 20:31QUYYA11Straight Flush120,000
218/01 20:31CIUNI99Straight Flush600,000
318/01 20:30ANDICKStraight Flush600,000
418/01 20:28PLKOJIStraight Flush600,000
518/01 20:28SANDRO06Straight Flush600,000
LATEST JACKPOT
No.TanggalNamaPriceWin
118/01 20:31ODRI346Full House5,000
218/01 20:31TEMPIK01Four Of A Kind250,000
318/01 20:31GOONERS01Full House5,000
418/01 20:31COYUNGFAT_Full House1,000
518/01 20:31RONNY212Four Of A Kind50,000
618/01 20:31NGETAMFull House2,000
718/01 20:31AQ_AKFull House5,000
818/01 20:31D4TUK45Full House5,000
918/01 20:31FELE99Full House5,000
1018/01 20:31JACKKSSFull House5,000
1118/01 20:31_MASSTER__Full House1,000
1218/01 20:31KENDARI01Full House2,000
1318/01 20:31GEPENGF1Full House10,000
1418/01 20:31BALMOD1Full House5,000
1518/01 20:31HOPPER09Full House2,000
1618/01 20:31MAYANG00Full House2,000
1718/01 20:31MUMU10001Full House2,000
1818/01 20:31SIN1SINFull House1,000
1918/01 20:31PYHFull House2,000
2018/01 20:31QUYYA11Straight Flush120,000
2118/01 20:31SUEL86Full House2,000
2218/01 20:31LIGA99Full House2,000
2318/01 20:31MOESTIKAFull House10,000
2418/01 20:31D779AKQFull House1,000
2518/01 20:31REGE1607Four Of A Kind125,000
2618/01 20:31DWG4MBL3RFull House10,000
2718/01 20:31DTUMBANGFull House2,000
2818/01 20:31ICARDI09Full House2,000
2918/01 20:31BERAKDUITFull House1,000
3018/01 20:31BOGGGGGGFull House1,000
3118/01 20:31S3NZAS1Full House1,000
3218/01 20:31XLUIWFGLZWFull House5,000
3318/01 20:31B_490_NG25Full House2,000
3418/01 20:31AMIN1973Full House2,000
3518/01 20:31CIUNI99Straight Flush600,000
3618/01 20:31OKA12Full House5,000
3718/01 20:31BG_IZENFull House2,000
3818/01 20:31PKRNEWHENGFull House5,000
3918/01 20:31SOPO_KUATFull House2,000
4018/01 20:31SEPI92Full House10,000
4118/01 20:31ASTANTO18Full House5,000
4218/01 20:31HRP11Full House1,000
4318/01 20:31SAPPROL91Full House1,000
4418/01 20:31HASEUUMMFull House5,000
4518/01 20:3113UDYFull House10,000
4618/01 20:31ASDERTIIIIFull House1,000
4718/01 20:31K2RJ7C68O4Full House2,000
4818/01 20:31TRISNA789Full House2,000
4918/01 20:31NAMEVERFull House20,000
5018/01 20:31NA888791Full House2,000

Domino Multi Jackpot System

Ikutilah global jackpot yang tersedia di system kami, dengan system jackpot terbaru dan pertama di indonesia, anda dapat membeli jackpot dengan harga 100 rupiah saja dan menangkan hadiahnya hingga puluhan juta rupiah.

Jackpot bukanlah suatu keharusan untuk dibeli, namun kami memberikan suatu fitur tambahan untuk member tercinta dari www.salampoker.com.

Terdapat tiga pilihan harga jackpot yang bisa anda beli yaitu :100,500 dan 1000 rupiah.

Hadiah dari Multi jackpot system www.salampoker.com

  1. Murni Kecil x 50 harga jackpot yang anda beli.
      (contoh:anda membeli 1000 maka:1000 X 50 = 50.000)
  2. Murni Besar x 50 harga jackpot yang anda beli
      (contoh:anda membeli 1000 maka:1000 X 50 = 50.000)
  3. BALAK x 100 harga jackpot yang anda beli
      (contoh:anda membeli 1000 maka:1000 X 100 = 100.000)
  4. ENAM DEWA x 6666 harga jackpot yang anda beli
      (contoh:anda membeli 1000 maka:1000 X 6666 = 6.666.000)

Demikian adalah penjelasan dari Multi Jackpot www.salampoker.com terima kasih dan selamat bermain salam hoki dari kami

Domino Jackpot Winner

TOP ENAM DEWA
No.TanggalNamaPriceWin
118/01 20:02NGOWOHmurni enam6,666,000
218/01 19:19OGE28murni enam6,666,000
318/01 18:55ORLAND338murni enam3,333,000
418/01 17:16A9_3Nmurni enam6,666,000
518/01 14:48UTUHLAKImurni enam6,666,000
TOP BALAK
No.TanggalNamaPriceWin
118/01 20:26ARFIN99balak100,000
218/01 20:26CLM77A745balak50,000
318/01 20:25ETENG98balak50,000
418/01 20:24CHANGC0balak100,000
518/01 20:19COCOM4balak10,000
LATEST JACKPOT
No.TanggalNamaPriceWin
118/01 20:31SUGI66murni besar50,000
218/01 20:31RIZAL1986murni besar50,000
318/01 20:31OOOOOO99murni besar25,000
418/01 20:30AMIRA242murni besar25,000
518/01 20:29TG1234murni besar50,000
618/01 20:28CIAATmurni besar5,000
718/01 20:27SALIAP9murni besar50,000
818/01 20:27J1010murni kecil50,000
918/01 20:27DEALBI66murni besar25,000
1018/01 20:26ARFIN99balak100,000
1118/01 20:26CLM77A745balak50,000
1218/01 20:25SALEHO27murni kecil5,000
1318/01 20:25ETENG98balak50,000
1418/01 20:25IDK889882murni kecil5,000
1518/01 20:25KUMANHELLmurni kecil50,000
1618/01 20:24MINUNSHOWmurni besar50,000
1718/01 20:24AMIRNURDmurni kecil50,000
1818/01 20:24CHANGC0balak100,000
1918/01 20:24EMMASKUmurni besar5,000
2018/01 20:24SAREBmurni besar50,000
2118/01 20:24HANDAK1murni kecil50,000
2218/01 20:23RENDANI7murni besar5,000
2318/01 20:23IQOY12murni kecil50,000
2418/01 20:23VICKY977murni besar25,000
2518/01 20:22SIKODOK27murni kecil50,000
2618/01 20:22SUGI66murni besar50,000
2718/01 20:22MARYANTO70lucky99200,000
2818/01 20:22LIBAZ79murni besar25,000
2918/01 20:21OSAKAVIPmurni besar50,000
3018/01 20:21HERI1987murni kecil25,000
3118/01 20:20TG1234murni besar50,000
3218/01 20:19COCOM4balak10,000
3318/01 20:19ILAL91murni besar50,000
3418/01 20:19BADAT99murni besar50,000
3518/01 20:19ASS777balak100,000
3618/01 20:19JAWALLmurni kecil5,000
3718/01 20:18LEM00Tmurni kecil50,000
3818/01 20:18LAST006murni besar50,000
3918/01 20:18AULITTAmurni kecil5,000
4018/01 20:18ASKING9898lucky992,500
4118/01 20:18TENGKLENO9murni besar50,000
4218/01 20:18CAWET321murni kecil25,000
4318/01 20:17LUY7FTMSTDmurni besar5,000
4418/01 20:17RAJA__QQ99balak50,000
4518/01 20:16CICIS99murni kecil25,000
4618/01 20:16EMBEPmurni kecil5,000
4718/01 20:16SARTIYONOmurni kecil5,000
4818/01 20:16R4ZORSbalak50,000
4918/01 20:14AL591murni besar50,000
5018/01 20:13ULIS99murni besar50,000

Ceme Multi Jackpot System

Jackpot dilihat dari gabungan kartu pemain dengan kartu bandar. Bandar harus membeli jackpot sebanyak jumlah player yang sedang duduk. Sebagai contoh bila terdapat 3 pemain duduk bermain, dan bandar memutuskan untuk membeli jackpot Rp 1.000, maka pada periode tersebut bandar akan membeli jackpot sebanyak 3xRp1.000 = Rp3.000.

Jackpot bukanlah suatu keharusan untuk dibeli, namun kami memberikan suatu fitur tambahan untuk member tercinta dari www.salampoker.com.

Terdapat tiga pilihan harga jackpot yang bisa anda beli yaitu :100,500 dan 1000 rupiah.

Hadiah dari Multi jackpot system www.salampoker.com

  1. Murni Kecil x 50 harga jackpot yang anda beli.
      (contoh:anda membeli 1000 maka:1000 X 50 = 50.000)
  2. Murni Besar x 50 harga jackpot yang anda beli
      (contoh:anda membeli 1000 maka:1000 X 50 = 50.000)
  3. BALAK x 200 harga jackpot yang anda beli
      (contoh:anda membeli 1000 maka:1000 X 200 = 200.000)
  4. ENAM DEWA x 6666 harga jackpot yang anda beli
      (contoh:anda membeli 1000 maka:1000 X 6666 = 6.666.000)

Demikian adalah penjelasan dari Multi Jackpot www.salampoker.com terima kasih dan selamat bermain salam hoki dari kami

Ceme Jackpot Winner

TOP ENAM DEWA
No.TanggalNamaPriceWin
118/01 20:30PASYA189murni enam666,600
218/01 19:49DOBRAK90murni enam666,600
318/01 19:46HERNIAWATImurni enam6,666,000
418/01 19:31CUMICANTmurni enam6,666,000
518/01 19:27BINGGO90957murni enam6,666,000
TOP BALAK
No.TanggalNamaPriceWin
118/01 20:31RESTUIBU_1balak200,000
218/01 20:31ADAY09balak200,000
318/01 20:31KOLINAS4balak200,000
418/01 20:31UYUTBAONGbalak20,000
518/01 20:31AXEL24balak100,000
LATEST JACKPOT
No.TanggalNamaPriceWin
118/01 20:31RESTUIBU_1balak200,000
218/01 20:31SONDO12345murni kecil5,000
318/01 20:31RINOIDmurni kecil50,000
418/01 20:31ADAY09balak200,000
518/01 20:31IJUP111murni kecil50,000
618/01 20:31KOLINAS4balak200,000
718/01 20:31UYUTBAONGbalak20,000
818/01 20:31AXEL24balak100,000
918/01 20:30PAPAKILO99murni kecil25,000
1018/01 20:30EBLACK16murni kecil5,000
1118/01 20:30BP882361murni besar50,000
1218/01 20:30MANIS211murni besar25,000
1318/01 20:30EBENX212murni kecil50,000
1418/01 20:30STABILL9murni kecil50,000
1518/01 20:30MAX2531murni kecil50,000
1618/01 20:30GATEP77balak100,000
1718/01 20:30BONY123murni kecil50,000
1818/01 20:30R0CKYJAYmurni kecil25,000
1918/01 20:30PAINEM008balak100,000
2018/01 20:30DEMPLON15murni besar50,000
2118/01 20:30KOBRA1927murni besar5,000
2218/01 20:30ILO2018murni kecil50,000
2318/01 20:30PASYA189murni enam666,600
2418/01 20:30AMYGHOSmurni kecil50,000
2518/01 20:29T4DSTEM19murni besar5,000
2618/01 20:29POLOS_7murni kecil50,000
2718/01 20:29AAKHAFMI80murni kecil50,000
2818/01 20:29ALIP1_murni kecil50,000
2918/01 20:29COBAIN222murni kecil50,000
3018/01 20:29FISHMAN99murni besar50,000
3118/01 20:29AMANZHYmurni kecil5,000
3218/01 20:29PASYA189murni besar5,000
3318/01 20:29LUGUA09murni besar50,000
3418/01 20:29JALET07murni kecil5,000
3518/01 20:28LABILL88murni kecil5,000
3618/01 20:28LABILL88murni kecil5,000
3718/01 20:28NADEP88murni kecil50,000
3818/01 20:28O7PSVEU473murni kecil25,000
3918/01 20:28IB123123murni kecil50,000
4018/01 20:28APITJ0murni kecil50,000
4118/01 20:28BUNGUL1murni kecil50,000
4218/01 20:28BONY123murni kecil50,000
4318/01 20:28R0CKYJAYmurni kecil25,000
4418/01 20:28GLOKTbalak20,000
4518/01 20:28PAJERO333balak200,000
4618/01 20:28DEMPLON15balak200,000
4718/01 20:28X56Smurni besar50,000
4818/01 20:28TOKUYOmurni kecil50,000
4918/01 20:28MARKINCUUSmurni besar50,000
5018/01 20:28WG2GPKRK9Pmurni besar50,000